Airfield :
LOGIN :

Register | Disclaimer

   EN    FR    IT 

 










Legend :    VFR   Marginal VFR   IFR   Intensive IFR   Very Intensive IFR
Visi :
Ceiling :
>= 8 km
>= 3000ft
5 to 8 km
1000 to 3000 ft
1500m to 5 km
500 to 1000 ft
800 to 1500m
200 to 500 ft
< 800m
< 200 ft
Symbols :   Thunderstorms  Fog  Heavy snow  Heavy precipitations  Wind > 20 kt
SIGMETs :     Misc.  Thunderstorms  Icing  Turbulence  Mountain Waves  Volcanic Ashes







- Airport Elevation : 32 ft
- IATA code : LKZ


EGUL - RAF Lakenheath

CURRENT METAR :
  • 250012Z AUTO 29009KT 9999 SCT028 BKN035 BKN049 10/08 A2971 RMK AO2 DZE2357 SLP064 $

EXPIRED METARs :
  • 242357Z AUTO 30008KT 9999 FEW007 SCT018 BKN026 OVC038 10/09 A2970 RMK AO2 DZE57 CIG 018V026 BKN V OVC CIG 016 RWY06 SLP061 $
  • 242346Z AUTO 30010KT 9999 -RA FEW007 SCT014 OVC020 10/09 A2970 RMK AO2 RAB24 CIG 016V020 CIG 016 RWY06 SLP061 $
  • 242334Z AUTO 30017G24KT 9999 -RA FEW009 BKN016 BKN025 OVC039 12/10 A2969 RMK AO2 WSHFT 19 RAB24 CIG 015V026 SLP057 $
  • 242326Z AUTO 26016KT 9999 -RA FEW012 SCT018 BKN024 BKN030 BKN038 BKN048 12/10 A2968 RMK AO2 RAB24 CIG 023V038 SLP054 $
  • 242322Z AUTO 25016KT 9999 SCT013 SCT019 BKN026 BKN039 BKN048 12/10 A2967 RMK AO2 CIG 023V048 SLP050 $
  • 242256Z AUTO 24015G21KT 9999 FEW008 SCT014 BKN046 12/10 A2967 RMK AO2 PK WND 21026/06 RAB12E43DZB43E50 SLP050 P0002 T01200104 $
  • 242250Z AUTO 24015G21KT 9999 FEW002 FEW007 SCT016 BKN044 12/10 A2967 RMK AO2 RAB12E43DZB43E50 SLP050 $
  • 242212Z AUTO 23017G24KT 9999 -RA BKN018 OVC023 13/10 A2966 RMK AO2 RAB12 SLP047 $
  • 242156Z AUTO 22019G23KT 9999 BKN020 OVC026 13/10 A2966 RMK AO2 RAE24RAB29E38 CIG 019 RWY06 SLP047 P0000 T01280102 $
  • 242142Z AUTO 22018G24KT 9999 BKN021 OVC026 13/10 A2967 RMK AO2 RAE24RAB29E38 CIG 019 RWY06 SLP050 $

TAF AMD TAF EGUL
Valid from the 24 at 21:00 until the 26 at 02:00 UTC


242110Z 2421/2602 23012G20KT 8000 -SHRA BKN019 QNH2968INS
BECMG 2423/2424 28012G20KT 8000 SHRA BKN015 QNH2966INS
BECMG 2502/2503 28009KT 9000 SHRA BKN015 QNH2972INS
TEMPO 2509/2518 25012G25KT
BECMG 2518/2519 25009KT 9999 NSW SCT015 QNH2982INS TX14/2513Z TN05/2505Z LAST NO AMDS AFT 2421 NEXT 2504
No reported NOTAMs for that airfield.



MET'MAP, your aeronautical weather chart ! - Copyright ORBIFLY December 2007 - Disclaimer

ORBIFLY MET'MAP TEAM :

Programming & Development : Alexandra Zaïnal
Concept & Development : Baudouin d'Aumeries
Co-Development & Prog : Marc-Olivier Méhu
Technical & hardware support : Manuel Goepfert

Contact : metmap@orbifly.com




SOURCES & CREDITS :

   NOAA